createdAt,value
2023-05-10T00:01:11.783Z,48.90
2023-05-10T00:03:41.452Z,48.94
2023-05-10T00:06:10.596Z,48.96
2023-05-10T00:08:42.220Z,48.89
2023-05-10T00:11:11.079Z,48.83
2023-05-10T00:13:43.065Z,48.81
2023-05-10T00:16:22.877Z,48.86
2023-05-10T00:18:52.046Z,48.92
2023-05-10T00:21:21.151Z,48.93
2023-05-10T00:23:50.244Z,48.92
2023-05-10T00:26:19.270Z,48.98
2023-05-10T00:28:51.811Z,48.96
2023-05-10T00:31:21.592Z,48.91
2023-05-10T00:33:50.454Z,48.93
2023-05-10T00:36:22.747Z,48.94
2023-05-10T00:38:58.529Z,48.92
2023-05-10T00:41:40.121Z,48.86
2023-05-10T00:44:20.227Z,48.93
2023-05-10T00:46:49.081Z,48.88
2023-05-10T00:49:29.897Z,48.89
2023-05-10T00:52:03.050Z,48.86
2023-05-10T00:54:35.494Z,48.82
2023-05-10T00:57:06.931Z,48.88
2023-05-10T00:59:36.030Z,48.76
2023-05-10T01:02:16.624Z,48.89
2023-05-10T01:04:45.223Z,48.86
2023-05-10T01:07:26.548Z,48.85
2023-05-10T01:09:57.816Z,48.78
2023-05-10T01:12:36.492Z,48.78
2023-05-10T01:15:27.396Z,48.67
2023-05-10T01:17:59.812Z,48.73
2023-05-10T01:20:33.324Z,48.66
2023-05-10T01:23:41.010Z,48.67
2023-05-10T01:26:31.450Z,48.74
2023-05-10T01:29:30.640Z,48.62
2023-05-10T01:32:08.257Z,48.67
2023-05-10T01:34:43.865Z,48.67
2023-05-10T01:37:17.565Z,48.65
2023-05-10T01:40:02.175Z,48.50
2023-05-10T01:42:37.386Z,48.60
2023-05-10T01:45:09.205Z,48.54
2023-05-10T01:47:51.647Z,48.61
2023-05-10T01:50:23.780Z,48.68
2023-05-10T01:52:55.770Z,48.57
2023-05-10T01:55:39.712Z,48.50
2023-05-10T01:58:16.786Z,48.55
2023-05-10T02:00:47.564Z,48.63
2023-05-10T02:03:19.997Z,48.57
2023-05-10T02:05:54.967Z,48.50
2023-05-10T02:08:30.777Z,48.51
2023-05-10T02:11:06.835Z,48.49
2023-05-10T02:13:40.468Z,48.51
2023-05-10T02:16:09.699Z,48.50
2023-05-10T02:18:52.619Z,48.52
2023-05-10T02:21:26.942Z,48.57
2023-05-10T02:24:01.136Z,48.58
2023-05-10T02:26:41.889Z,48.59
2023-05-10T02:29:13.961Z,48.63
2023-05-10T02:31:44.736Z,48.70
2023-05-10T02:34:14.814Z,48.60
2023-05-10T02:36:47.627Z,48.67
2023-05-10T02:39:23.410Z,48.58
2023-05-10T02:41:56.761Z,48.65
2023-05-10T02:44:28.168Z,48.63
2023-05-10T02:46:58.059Z,48.62
2023-05-10T02:49:31.858Z,48.69
2023-05-10T02:52:03.451Z,48.66
2023-05-10T02:54:34.370Z,48.57
2023-05-10T02:57:05.539Z,48.71
2023-05-10T02:59:37.116Z,48.73
2023-05-10T03:02:06.540Z,48.71
2023-05-10T03:04:44.611Z,48.72
2023-05-10T03:07:13.731Z,48.73
2023-05-10T03:09:42.954Z,48.74
2023-05-10T03:12:15.363Z,48.82
2023-05-10T03:14:47.440Z,48.74
2023-05-10T03:17:22.351Z,48.73
2023-05-10T03:20:01.534Z,48.78
2023-05-10T03:22:38.291Z,48.75
2023-05-10T03:25:11.898Z,48.74
2023-05-10T03:27:42.744Z,48.73
2023-05-10T03:30:18.496Z,48.72
2023-05-10T03:32:47.714Z,48.73
2023-05-10T03:35:21.152Z,48.69
2023-05-10T03:37:49.885Z,48.73
2023-05-10T03:40:32.530Z,48.66
2023-05-10T03:43:12.677Z,48.70
2023-05-10T03:45:41.253Z,48.70
2023-05-10T03:48:09.754Z,48.66
2023-05-10T03:50:38.416Z,48.69
2023-05-10T03:53:09.692Z,48.66
2023-05-10T03:55:38.607Z,48.66
2023-05-10T03:58:08.747Z,48.77
2023-05-10T04:00:37.316Z,48.80
2023-05-10T04:03:09.152Z,48.85
2023-05-10T04:05:42.851Z,48.81
2023-05-10T04:08:11.653Z,48.80
2023-05-10T04:10:42.650Z,48.89
2023-05-10T04:13:14.021Z,48.85
2023-05-10T04:15:49.937Z,48.82
2023-05-10T04:18:26.263Z,48.83
2023-05-10T04:20:57.860Z,48.88
2023-05-10T04:23:30.541Z,48.91
2023-05-10T04:26:09.623Z,48.92
2023-05-10T04:28:40.609Z,48.93
2023-05-10T04:31:12.682Z,48.95
2023-05-10T04:33:45.270Z,48.94
2023-05-10T04:36:36.115Z,48.99
2023-05-10T04:39:18.011Z,49.07
2023-05-10T04:41:47.199Z,48.98
2023-05-10T04:44:18.923Z,49.05
2023-05-10T04:46:48.056Z,49.04
2023-05-10T04:49:17.909Z,49.10
2023-05-10T04:51:49.956Z,49.06
2023-05-10T04:54:21.253Z,49.09
2023-05-10T04:56:53.407Z,49.07
2023-05-10T04:59:25.022Z,49.10
2023-05-10T05:01:54.380Z,49.09
2023-05-10T05:04:26.334Z,49.06
2023-05-10T05:06:55.057Z,49.09
2023-05-10T05:09:33.294Z,49.17
2023-05-10T05:12:15.202Z,49.10
2023-05-10T05:14:44.584Z,49.15
2023-05-10T05:17:13.918Z,49.14
2023-05-10T05:19:42.854Z,49.20
2023-05-10T05:22:11.856Z,49.18
2023-05-10T05:24:40.961Z,49.28
2023-05-10T05:27:09.806Z,49.16
2023-05-10T05:29:38.232Z,49.26
2023-05-10T05:32:09.566Z,49.29
2023-05-10T05:34:38.059Z,49.20
2023-05-10T05:37:07.073Z,49.31
2023-05-10T05:39:37.255Z,49.28
2023-05-10T05:42:06.405Z,49.31
2023-05-10T05:44:35.212Z,49.31
2023-05-10T05:47:06.684Z,49.28
2023-05-10T05:49:48.461Z,49.36
2023-05-10T05:52:24.664Z,49.45
2023-05-10T05:54:53.596Z,49.35
2023-05-10T05:57:50.285Z,49.49
2023-05-10T06:00:19.615Z,49.44
2023-05-10T06:02:49.044Z,49.48
2023-05-10T06:05:33.422Z,49.57
2023-05-10T06:08:23.612Z,49.53
2023-05-10T06:10:55.761Z,49.61
2023-05-10T06:13:33.355Z,49.67
2023-05-10T06:16:07.518Z,49.74
2023-05-10T06:18:37.139Z,49.78
2023-05-10T06:21:06.239Z,49.86
2023-05-10T06:23:50.773Z,49.86
2023-05-10T06:26:19.584Z,49.88
2023-05-10T06:28:51.015Z,49.90
2023-05-10T06:31:22.897Z,49.94
2023-05-10T06:34:14.931Z,49.96
2023-05-10T06:36:46.666Z,50.00
2023-05-10T06:39:15.192Z,49.97
2023-05-10T06:41:47.040Z,49.93
2023-05-10T06:44:16.659Z,50.00
2023-05-10T06:46:45.319Z,50.00
2023-05-10T06:49:31.591Z,49.98
2023-05-10T06:52:00.749Z,50.00
2023-05-10T06:54:30.060Z,50.01
2023-05-10T06:56:58.989Z,50.00
2023-05-10T06:59:31.062Z,49.86
2023-05-10T07:02:00.352Z,50.04
2023-05-10T07:04:30.419Z,49.92
2023-05-10T07:07:02.563Z,50.00
2023-05-10T07:09:41.513Z,49.96
2023-05-10T07:12:13.439Z,50.02
2023-05-10T07:14:44.798Z,50.09
2023-05-10T07:17:13.814Z,50.08
2023-05-10T07:19:42.591Z,50.09
2023-05-10T07:22:12.377Z,50.12
2023-05-10T07:24:41.562Z,50.09
2023-05-10T07:27:10.467Z,50.14
2023-05-10T07:29:39.644Z,50.10
2023-05-10T07:32:09.584Z,50.13
2023-05-10T07:34:38.141Z,50.12
2023-05-10T07:37:08.300Z,50.14
2023-05-10T07:39:37.181Z,50.13
2023-05-10T07:42:07.179Z,50.12
2023-05-10T07:44:36.883Z,49.98
2023-05-10T07:47:08.316Z,50.10
2023-05-10T07:49:37.073Z,50.15
2023-05-10T07:52:08.691Z,50.07
2023-05-10T07:54:39.042Z,50.13
2023-05-10T07:57:07.848Z,50.11
2023-05-10T07:59:37.563Z,50.08
2023-05-10T08:02:07.394Z,50.13
2023-05-10T08:04:36.175Z,50.07
2023-05-10T08:07:05.090Z,50.23
2023-05-10T08:09:34.679Z,50.19
2023-05-10T08:12:03.780Z,50.20
2023-05-10T08:14:32.993Z,50.11
2023-05-10T08:17:01.983Z,50.16
2023-05-10T08:19:30.923Z,50.14
2023-05-10T08:21:59.828Z,50.15
2023-05-10T08:24:28.413Z,50.24
2023-05-10T08:26:58.074Z,50.23
2023-05-10T08:29:28.531Z,50.13
2023-05-10T08:31:59.345Z,50.13
2023-05-10T08:34:28.678Z,50.12
2023-05-10T08:36:58.341Z,50.03
2023-05-10T08:39:30.634Z,50.09
2023-05-10T08:42:01.922Z,50.05
2023-05-10T08:44:32.100Z,50.03
2023-05-10T08:47:05.199Z,50.09
2023-05-10T08:49:34.545Z,50.07
2023-05-10T08:52:05.166Z,49.99
2023-05-10T08:54:34.351Z,50.00
2023-05-10T08:57:03.059Z,50.03
2023-05-10T08:59:31.636Z,50.00
2023-05-10T09:02:01.724Z,50.00
2023-05-10T09:04:31.121Z,50.02
2023-05-10T09:06:59.579Z,49.94
2023-05-10T09:09:28.549Z,49.96
2023-05-10T09:11:57.200Z,50.01
2023-05-10T09:14:26.187Z,49.93
2023-05-10T09:16:56.340Z,49.86
2023-05-10T09:19:25.113Z,49.85
2023-05-10T09:21:53.933Z,49.80
2023-05-10T09:24:27.010Z,49.77
2023-05-10T09:26:57.872Z,49.82
2023-05-10T09:29:26.264Z,49.71
2023-05-10T09:31:57.803Z,49.74
2023-05-10T09:34:34.869Z,49.67
2023-05-10T09:37:05.470Z,49.62
2023-05-10T09:39:35.607Z,49.57
2023-05-10T09:42:09.643Z,49.68
2023-05-10T09:44:39.449Z,49.52
2023-05-10T09:47:07.860Z,49.59
2023-05-10T09:49:36.273Z,49.40
2023-05-10T09:52:05.904Z,49.40
2023-05-10T09:54:35.649Z,49.28
2023-05-10T09:57:04.682Z,49.35
2023-05-10T09:59:35.967Z,49.32
2023-05-10T10:02:06.005Z,49.22
2023-05-10T10:04:40.246Z,49.11
2023-05-10T10:07:09.008Z,48.98
2023-05-10T10:09:38.114Z,48.95
2023-05-10T10:12:07.171Z,49.00
2023-05-10T10:14:36.735Z,49.03
2023-05-10T10:17:08.650Z,49.02
2023-05-10T10:19:38.234Z,48.85
2023-05-10T10:22:07.084Z,48.97
2023-05-10T10:24:36.574Z,48.90
2023-05-10T10:27:10.184Z,48.75
2023-05-10T10:29:58.869Z,48.73
2023-05-10T10:32:31.748Z,48.71
2023-05-10T10:35:01.135Z,48.52
2023-05-10T10:37:51.298Z,48.51
2023-05-10T10:40:26.883Z,48.63
2023-05-10T10:42:56.184Z,48.63
2023-05-10T10:45:26.634Z,48.49
2023-05-10T10:48:14.625Z,48.43
2023-05-10T10:50:49.505Z,48.47
2023-05-10T10:53:18.841Z,48.02
2023-05-10T10:55:48.929Z,48.00
2023-05-10T10:58:38.168Z,47.90
2023-05-10T11:01:11.701Z,47.80
2023-05-10T11:03:40.355Z,47.74
2023-05-10T11:06:09.718Z,47.59
2023-05-10T11:08:45.209Z,47.55
2023-05-10T11:11:15.689Z,47.32
2023-05-10T11:13:45.475Z,47.49
2023-05-10T11:16:18.384Z,47.29
2023-05-10T11:19:08.934Z,47.19
2023-05-10T11:22:10.054Z,47.29
2023-05-10T11:24:38.546Z,47.42
2023-05-10T11:27:14.694Z,47.52
2023-05-10T11:29:44.511Z,47.64
2023-05-10T11:32:14.239Z,47.09
2023-05-10T11:34:43.128Z,47.05
2023-05-10T11:37:11.520Z,47.00
2023-05-10T11:39:46.756Z,47.13
2023-05-10T11:42:15.677Z,47.16
2023-05-10T11:44:46.951Z,47.04
2023-05-10T11:47:14.929Z,46.97
2023-05-10T11:49:46.654Z,46.84
2023-05-10T11:52:15.638Z,46.87
2023-05-10T11:54:52.104Z,46.74
2023-05-10T11:57:21.658Z,46.70
2023-05-10T11:59:54.258Z,46.57
2023-05-10T12:02:23.591Z,46.68
2023-05-10T12:04:52.499Z,46.48
2023-05-10T12:07:21.317Z,46.39
2023-05-10T12:10:03.675Z,46.33
2023-05-10T12:12:38.961Z,46.07
2023-05-10T12:15:11.567Z,46.04
2023-05-10T12:17:43.468Z,45.98
2023-05-10T12:20:17.287Z,45.94
2023-05-10T12:22:47.027Z,45.74
2023-05-10T12:25:15.607Z,45.61
2023-05-10T12:27:54.463Z,45.74
2023-05-10T12:30:23.329Z,45.63
2023-05-10T12:32:52.745Z,45.65
2023-05-10T12:35:23.734Z,45.52
2023-05-10T12:37:52.344Z,45.38
2023-05-10T12:40:21.200Z,45.22
2023-05-10T12:42:50.226Z,45.02
2023-05-10T12:45:19.256Z,45.04
2023-05-10T12:47:48.064Z,44.99
2023-05-10T12:50:16.680Z,44.91
2023-05-10T12:52:45.236Z,44.77
2023-05-10T12:55:14.114Z,44.50
2023-05-10T12:57:42.808Z,44.53
2023-05-10T13:00:11.329Z,44.39
2023-05-10T13:02:39.833Z,44.33
2023-05-10T13:05:08.319Z,44.12
2023-05-10T13:07:37.303Z,44.08
2023-05-10T13:10:07.185Z,44.14
2023-05-10T13:12:35.550Z,44.13
2023-05-10T13:15:05.432Z,44.14
2023-05-10T13:17:34.378Z,43.95
2023-05-10T13:20:04.474Z,43.85
2023-05-10T13:22:40.274Z,43.79
2023-05-10T13:25:09.477Z,43.74
2023-05-10T13:27:38.426Z,43.76
2023-05-10T13:30:08.268Z,43.74
2023-05-10T13:32:36.715Z,43.84
2023-05-10T13:35:06.047Z,43.79
2023-05-10T13:37:38.259Z,43.73
2023-05-10T13:40:08.062Z,43.63
2023-05-10T13:42:36.821Z,43.65
2023-05-10T13:45:06.299Z,43.44
2023-05-10T13:47:34.965Z,43.48
2023-05-10T13:50:05.025Z,43.55
2023-05-10T13:52:33.433Z,43.49
2023-05-10T13:55:01.811Z,43.40
2023-05-10T13:57:31.309Z,43.41
2023-05-10T13:59:59.960Z,43.37
2023-05-10T14:02:28.911Z,43.17
2023-05-10T14:04:57.680Z,42.74
2023-05-10T14:07:26.074Z,42.50
2023-05-10T14:09:54.981Z,42.14
2023-05-10T14:12:23.551Z,42.05
2023-05-10T14:14:53.272Z,42.11
2023-05-10T14:17:23.423Z,42.18
2023-05-10T14:19:53.307Z,42.06
2023-05-10T14:22:23.790Z,42.06
2023-05-10T14:24:55.093Z,42.14
2023-05-10T14:27:24.896Z,42.16
2023-05-10T14:29:54.321Z,42.27
2023-05-10T14:32:22.837Z,42.28
2023-05-10T14:34:51.833Z,42.24
2023-05-10T14:37:20.480Z,42.24
2023-05-10T14:39:49.223Z,42.28
2023-05-10T14:42:18.094Z,42.36
2023-05-10T14:44:47.054Z,42.24
2023-05-10T14:47:15.814Z,42.29
2023-05-10T14:49:45.616Z,42.32
2023-05-10T14:52:15.381Z,42.37
2023-05-10T14:54:44.343Z,42.38
2023-05-10T14:57:13.790Z,42.34
2023-05-10T14:59:42.146Z,42.34
2023-05-10T15:02:11.473Z,42.38
2023-05-10T15:04:40.633Z,42.31
2023-05-10T15:07:10.179Z,42.22
2023-05-10T15:09:40.018Z,42.14
2023-05-10T15:12:09.418Z,42.14
2023-05-10T15:14:38.171Z,42.10
2023-05-10T15:17:08.487Z,41.99
2023-05-10T15:19:37.555Z,41.90
2023-05-10T15:22:06.444Z,41.87
2023-05-10T15:24:35.370Z,41.62
2023-05-10T15:27:04.394Z,41.32
2023-05-10T15:29:33.502Z,41.32
2023-05-10T15:32:02.910Z,41.28
2023-05-10T15:34:34.870Z,41.28
2023-05-10T15:37:04.532Z,41.22
2023-05-10T15:39:32.815Z,41.26
2023-05-10T15:42:02.536Z,41.21
2023-05-10T15:44:31.247Z,41.21
2023-05-10T15:47:00.117Z,41.26
2023-05-10T15:49:28.848Z,41.18
2023-05-10T15:51:57.616Z,41.14
2023-05-10T15:54:27.000Z,41.20
2023-05-10T15:56:55.676Z,41.09
2023-05-10T15:59:23.908Z,40.99
2023-05-10T16:01:52.336Z,41.02
2023-05-10T16:04:21.100Z,40.98
2023-05-10T16:06:49.750Z,40.86
2023-05-10T16:09:19.642Z,40.74
2023-05-10T16:11:48.269Z,40.62
2023-05-10T16:14:17.307Z,40.54
2023-05-10T16:16:46.169Z,40.42
2023-05-10T16:19:16.016Z,40.35
2023-05-10T16:21:44.841Z,40.19
2023-05-10T16:24:13.201Z,40.07
2023-05-10T16:26:42.003Z,40.17
2023-05-10T16:29:10.914Z,40.12
2023-05-10T16:31:39.708Z,40.04
2023-05-10T16:34:08.218Z,39.80
2023-05-10T16:36:38.094Z,39.91
2023-05-10T16:39:06.933Z,39.94
2023-05-10T16:41:35.647Z,39.91
2023-05-10T16:44:04.628Z,39.96
2023-05-10T16:46:34.107Z,39.94
2023-05-10T16:49:03.472Z,39.96
2023-05-10T16:51:32.157Z,39.88
2023-05-10T16:54:00.610Z,39.92
2023-05-10T16:56:29.108Z,39.81
2023-05-10T16:58:58.210Z,39.53
2023-05-10T17:01:27.268Z,39.38
2023-05-10T17:03:56.130Z,39.44
2023-05-10T17:06:25.956Z,39.35
2023-05-10T17:08:54.805Z,39.34
2023-05-10T17:11:23.475Z,39.30
2023-05-10T17:13:52.721Z,39.38
2023-05-10T17:16:22.107Z,39.34
2023-05-10T17:18:50.577Z,39.29
2023-05-10T17:21:20.280Z,39.38
2023-05-10T17:23:49.221Z,39.38
2023-05-10T17:26:17.571Z,39.46
2023-05-10T17:28:46.952Z,39.36
2023-05-10T17:31:15.292Z,39.41
2023-05-10T17:33:44.605Z,39.54
2023-05-10T17:36:13.035Z,39.65
2023-05-10T17:38:42.907Z,39.83
2023-05-10T17:41:11.408Z,39.87
2023-05-10T17:43:39.793Z,39.89
2023-05-10T17:46:08.491Z,39.88
2023-05-10T17:48:38.238Z,39.90
2023-05-10T17:51:06.960Z,40.09
2023-05-10T17:53:35.577Z,40.12
2023-05-10T17:56:04.310Z,40.24
2023-05-10T17:58:33.272Z,40.12
2023-05-10T18:01:02.662Z,40.38
2023-05-10T18:03:31.957Z,40.51
2023-05-10T18:06:00.591Z,40.45
2023-05-10T18:08:30.592Z,40.46
2023-05-10T18:10:59.514Z,40.54
2023-05-10T18:13:28.143Z,40.83
2023-05-10T18:15:57.485Z,40.73
2023-05-10T18:18:25.658Z,40.61
2023-05-10T18:20:57.908Z,40.62
2023-05-10T18:23:28.129Z,40.73
2023-05-10T18:25:57.856Z,40.83
2023-05-10T18:28:27.068Z,40.91
2023-05-10T18:30:55.433Z,40.86
2023-05-10T18:33:23.928Z,40.93
2023-05-10T18:35:54.459Z,40.92
2023-05-10T18:38:22.728Z,41.00
2023-05-10T18:40:52.271Z,41.16
2023-05-10T18:43:21.529Z,41.14
2023-05-10T18:45:51.281Z,41.20
2023-05-10T18:48:20.049Z,41.33
2023-05-10T18:50:50.080Z,41.46
2023-05-10T18:53:18.716Z,41.49
2023-05-10T18:55:55.149Z,41.73
2023-05-10T18:58:24.420Z,41.73
2023-05-10T19:00:54.233Z,41.79
2023-05-10T19:03:23.122Z,41.95
2023-05-10T19:05:51.517Z,41.97
2023-05-10T19:08:19.913Z,42.15
2023-05-10T19:10:48.591Z,42.25
2023-05-10T19:13:17.788Z,42.34
2023-05-10T19:15:47.721Z,42.42
2023-05-10T19:18:16.614Z,42.51
2023-05-10T19:20:47.049Z,42.54
2023-05-10T19:23:17.186Z,42.51
2023-05-10T19:25:47.342Z,42.54
2023-05-10T19:28:15.946Z,42.62
2023-05-10T19:30:46.638Z,42.72
2023-05-10T19:33:15.179Z,42.78
2023-05-10T19:35:43.759Z,42.81
2023-05-10T19:38:12.323Z,42.92
2023-05-10T19:40:40.955Z,42.97
2023-05-10T19:43:09.706Z,43.02
2023-05-10T19:45:40.075Z,43.05
2023-05-10T19:48:08.614Z,43.14
2023-05-10T19:50:38.401Z,43.15
2023-05-10T19:53:07.419Z,43.26
2023-05-10T19:55:36.907Z,43.20
2023-05-10T19:58:05.699Z,43.28
2023-05-10T20:00:34.525Z,43.29
2023-05-10T20:03:07.006Z,43.34
2023-05-10T20:05:37.892Z,43.43
2023-05-10T20:08:06.962Z,43.53
2023-05-10T20:10:35.602Z,43.53
2023-05-10T20:13:04.417Z,43.55
2023-05-10T20:15:32.887Z,43.62
2023-05-10T20:18:01.706Z,43.70
2023-05-10T20:20:30.614Z,43.60
2023-05-10T20:22:59.590Z,43.65
2023-05-10T20:25:28.577Z,43.67
2023-05-10T20:27:57.072Z,43.69
2023-05-10T20:30:25.549Z,43.87
2023-05-10T20:32:54.723Z,43.87
2023-05-10T20:35:24.379Z,43.99
2023-05-10T20:37:53.108Z,44.08
2023-05-10T20:40:22.237Z,44.04
2023-05-10T20:42:54.644Z,44.08
2023-05-10T20:45:23.198Z,44.15
2023-05-10T20:47:51.856Z,44.11
2023-05-10T20:50:20.926Z,44.16
2023-05-10T20:52:53.055Z,44.30
2023-05-10T20:55:22.114Z,44.24
2023-05-10T20:57:53.355Z,44.27
2023-05-10T21:00:22.236Z,44.30
2023-05-10T21:02:50.784Z,44.34
2023-05-10T21:05:20.014Z,44.31
2023-05-10T21:07:48.671Z,44.25
2023-05-10T21:10:18.298Z,44.28
2023-05-10T21:12:46.783Z,44.24
2023-05-10T21:15:15.247Z,44.32
2023-05-10T21:17:45.391Z,44.36
2023-05-10T21:20:23.038Z,44.39
2023-05-10T21:22:51.713Z,44.37
2023-05-10T21:25:22.110Z,44.33
2023-05-10T21:27:50.331Z,44.46
2023-05-10T21:30:20.078Z,44.52
2023-05-10T21:32:48.943Z,44.52
2023-05-10T21:35:17.916Z,44.57
2023-05-10T21:37:47.227Z,44.60
2023-05-10T21:40:24.800Z,44.72
2023-05-10T21:42:53.401Z,44.84
2023-05-10T21:45:22.145Z,44.81
2023-05-10T21:47:57.413Z,44.84
2023-05-10T21:50:26.415Z,44.89
2023-05-10T21:52:55.270Z,44.92
2023-05-10T21:55:24.728Z,44.91
2023-05-10T21:57:53.157Z,44.96
2023-05-10T22:00:24.956Z,44.95
2023-05-10T22:02:53.402Z,45.04
2023-05-10T22:05:23.020Z,45.00
2023-05-10T22:07:52.372Z,44.94
2023-05-10T22:10:30.180Z,44.99
2023-05-10T22:13:00.141Z,45.06
2023-05-10T22:15:34.195Z,45.05
2023-05-10T22:18:17.375Z,45.14
2023-05-10T22:20:49.010Z,45.17
2023-05-10T22:23:18.077Z,45.32
2023-05-10T22:25:48.064Z,45.43
2023-05-10T22:28:16.743Z,45.52
2023-05-10T22:30:48.285Z,45.63
2023-05-10T22:33:26.161Z,45.62
2023-05-10T22:35:54.871Z,45.69
2023-05-10T22:38:26.593Z,45.60
2023-05-10T22:40:58.594Z,45.69
2023-05-10T22:43:40.822Z,45.63
2023-05-10T22:46:10.469Z,45.69
2023-05-10T22:48:39.114Z,45.75
2023-05-10T22:51:09.222Z,45.80
2023-05-10T22:53:37.477Z,45.86
2023-05-10T22:56:06.566Z,45.86
2023-05-10T22:58:37.591Z,45.92
2023-05-10T23:01:05.860Z,45.91
2023-05-10T23:03:34.068Z,45.95
2023-05-10T23:06:02.186Z,45.99
2023-05-10T23:08:32.630Z,46.00
2023-05-10T23:11:03.329Z,46.00
2023-05-10T23:13:34.389Z,45.99
2023-05-10T23:16:06.666Z,46.03
2023-05-10T23:18:35.657Z,46.08
2023-05-10T23:21:12.963Z,46.07
2023-05-10T23:23:41.515Z,46.10
2023-05-10T23:26:10.362Z,46.18
2023-05-10T23:28:38.973Z,46.22
2023-05-10T23:31:07.513Z,46.28
2023-05-10T23:33:36.126Z,46.32
2023-05-10T23:36:10.833Z,46.40
2023-05-10T23:38:40.488Z,46.37
2023-05-10T23:41:08.799Z,46.31
2023-05-10T23:43:37.759Z,46.40
2023-05-10T23:46:06.847Z,46.42
2023-05-10T23:48:39.276Z,46.45
2023-05-10T23:51:08.427Z,46.48
2023-05-10T23:53:37.863Z,46.58
2023-05-10T23:56:08.433Z,46.55
2023-05-10T23:58:36.657Z,46.47
